Strona główna
METAR-TAF:

METAR-TAF

Lotnisko :

Port lotniczy Timișoara

Timişoara, Rumunia

Szerokość geograficzna: 45-46N, Długość geograficzna: 021-15E, wysokość: 86 m

Aktualna obserwacja pogody

Raport powstał 21 minut temu, godzina 02:00 UTC
Wiatr 5 kt od wschodnio-południowy wschód
Temperatura 3°C
Wilgotność 70%
Ciśnienie 1030 hPa
Widzialność 10 km lub więcej
Brak chmur poniżej 1500 m i brak chmur cumulonimbus

METAR: LRTR 060200Z 12005KT CAVOK 03/M02 Q1030

czas: 05:21 (02:21 UTC)

Prognoza

Raport powstał 3 godziny i 21 minut temu, godzina 23:00 UTC
Prognoza ważna od 06 godzina 00 UTC do 06 godzina 24 UTC
Wiatr 8 kt od wschodnio-południowy wschód
Widzialność 10 km lub więcej
Brak chmur poniżej 1500 m i brak chmur cumulonimbus

TAF: LRTR 052300Z 0600/0624 11008KT CAVOK

Obserwacja i prognoza pogody dla ponad 4000 lotnisk (raport METAR i TAF).

Dostępne stacje oznaczono żółtymi i czerwonymi punktami na mapie.

Najedź kursorem aby zobaczyć nazwę stacji.

Kliknij aby zobaczyć obserwacje i prognozy pogody.

Aby zmienić mapę: kliknij na zielony przycisk z czarnym krzyżykiem, aby powiększyć; na zielony przycisk z myślnikiem, aby pomniejszyć; na zielone strzałki, aby przejść do map sąsiednich.


METAR-TAF: